sensor_id;sensor_type;location;lat;lon;timestamp;temperature;humidity
5675;DHT22;2860;54.284;10.158;2023-04-03T00:01:28;-1.50;99.90
5675;DHT22;2860;54.284;10.158;2023-04-03T00:03:54;-1.60;99.90
5675;DHT22;2860;54.284;10.158;2023-04-03T00:06:21;-1.60;99.90
5675;DHT22;2860;54.284;10.158;2023-04-03T00:08:46;-1.60;99.90
5675;DHT22;2860;54.284;10.158;2023-04-03T00:11:12;-1.60;99.90
5675;DHT22;2860;54.284;10.158;2023-04-03T00:13:38;-1.60;99.90
5675;DHT22;2860;54.284;10.158;2023-04-03T00:16:05;-1.70;99.90
5675;DHT22;2860;54.284;10.158;2023-04-03T00:18:31;-1.60;99.90
5675;DHT22;2860;54.284;10.158;2023-04-03T00:20:57;-1.60;99.90
5675;DHT22;2860;54.284;10.158;2023-04-03T00:23:22;-1.60;99.90
5675;DHT22;2860;54.284;10.158;2023-04-03T00:25:49;-1.60;99.90
5675;DHT22;2860;54.284;10.158;2023-04-03T00:28:15;-1.60;99.90
5675;DHT22;2860;54.284;10.158;2023-04-03T00:30:40;-1.60;99.90
5675;DHT22;2860;54.284;10.158;2023-04-03T00:33:06;-1.70;99.90
5675;DHT22;2860;54.284;10.158;2023-04-03T00:35:32;-1.70;99.90
5675;DHT22;2860;54.284;10.158;2023-04-03T00:37:59;-1.80;99.90
5675;DHT22;2860;54.284;10.158;2023-04-03T00:40:26;-1.80;99.90
5675;DHT22;2860;54.284;10.158;2023-04-03T00:42:57;-1.80;99.90
5675;DHT22;2860;54.284;10.158;2023-04-03T00:45:37;-1.80;99.90
5675;DHT22;2860;54.284;10.158;2023-04-03T00:48:06;-1.80;99.90
5675;DHT22;2860;54.284;10.158;2023-04-03T00:50:35;-1.80;99.90
5675;DHT22;2860;54.284;10.158;2023-04-03T00:53:04;-1.80;99.90
5675;DHT22;2860;54.284;10.158;2023-04-03T00:55:30;-1.80;99.90
5675;DHT22;2860;54.284;10.158;2023-04-03T00:57:56;-1.80;99.90
5675;DHT22;2860;54.284;10.158;2023-04-03T01:00:23;-1.80;99.90
5675;DHT22;2860;54.284;10.158;2023-04-03T01:02:50;-1.80;99.90
5675;DHT22;2860;54.284;10.158;2023-04-03T01:05:17;-1.80;99.90
5675;DHT22;2860;54.284;10.158;2023-04-03T01:07:43;-1.80;99.90
5675;DHT22;2860;54.284;10.158;2023-04-03T01:10:11;-1.80;99.90
5675;DHT22;2860;54.284;10.158;2023-04-03T01:12:41;-1.80;99.90
5675;DHT22;2860;54.284;10.158;2023-04-03T01:15:10;-1.80;99.90
5675;DHT22;2860;54.284;10.158;2023-04-03T01:17:47;-1.80;99.90
5675;DHT22;2860;54.284;10.158;2023-04-03T01:23:29;-1.90;99.90
5675;DHT22;2860;54.284;10.158;2023-04-03T01:25:57;-1.90;99.90
5675;DHT22;2860;54.284;10.158;2023-04-03T01:28:26;-1.90;99.90
5675;DHT22;2860;54.284;10.158;2023-04-03T01:33:35;-2.00;99.90
5675;DHT22;2860;54.284;10.158;2023-04-03T01:36:01;-2.00;99.90
5675;DHT22;2860;54.284;10.158;2023-04-03T01:38:26;-2.00;99.90
5675;DHT22;2860;54.284;10.158;2023-04-03T01:40:52;-2.00;99.90
5675;DHT22;2860;54.284;10.158;2023-04-03T01:43:18;-2.00;99.90
5675;DHT22;2860;54.284;10.158;2023-04-03T01:45:43;-2.10;99.90
5675;DHT22;2860;54.284;10.158;2023-04-03T01:48:09;-2.10;99.90
5675;DHT22;2860;54.284;10.158;2023-04-03T01:50:34;-2.10;99.90
5675;DHT22;2860;54.284;10.158;2023-04-03T01:53:00;-2.10;99.90
5675;DHT22;2860;54.284;10.158;2023-04-03T01:55:26;-2.10;99.90
5675;DHT22;2860;54.284;10.158;2023-04-03T01:57:51;-2.10;99.90
5675;DHT22;2860;54.284;10.158;2023-04-03T02:00:17;-2.10;99.90
5675;DHT22;2860;54.284;10.158;2023-04-03T02:02:42;-2.20;99.90
5675;DHT22;2860;54.284;10.158;2023-04-03T02:05:09;-2.20;99.90
5675;DHT22;2860;54.284;10.158;2023-04-03T02:07:35;-2.30;99.90
5675;DHT22;2860;54.284;10.158;2023-04-03T02:10:00;-2.30;99.90
5675;DHT22;2860;54.284;10.158;2023-04-03T02:12:26;-2.30;99.90
5675;DHT22;2860;54.284;10.158;2023-04-03T02:14:51;-2.30;99.90
5675;DHT22;2860;54.284;10.158;2023-04-03T02:17:17;-2.30;99.90
5675;DHT22;2860;54.284;10.158;2023-04-03T02:19:42;-2.30;99.90
5675;DHT22;2860;54.284;10.158;2023-04-03T02:22:08;-2.30;99.90
5675;DHT22;2860;54.284;10.158;2023-04-03T02:24:33;-2.30;99.90
5675;DHT22;2860;54.284;10.158;2023-04-03T02:26:59;-2.40;99.90
5675;DHT22;2860;54.284;10.158;2023-04-03T02:29:25;-2.40;99.90
5675;DHT22;2860;54.284;10.158;2023-04-03T02:31:50;-2.40;99.90
5675;DHT22;2860;54.284;10.158;2023-04-03T02:34:17;-2.40;99.90
5675;DHT22;2860;54.284;10.158;2023-04-03T02:36:42;-2.40;99.90
5675;DHT22;2860;54.284;10.158;2023-04-03T02:39:08;-2.40;99.90
5675;DHT22;2860;54.284;10.158;2023-04-03T02:41:34;-2.40;99.90
5675;DHT22;2860;54.284;10.158;2023-04-03T02:44:04;-2.40;99.90
5675;DHT22;2860;54.284;10.158;2023-04-03T02:46:30;-2.40;99.90
5675;DHT22;2860;54.284;10.158;2023-04-03T02:48:56;-2.40;99.90
5675;DHT22;2860;54.284;10.158;2023-04-03T02:51:21;-2.50;99.90
5675;DHT22;2860;54.284;10.158;2023-04-03T02:53:48;-2.50;99.90
5675;DHT22;2860;54.284;10.158;2023-04-03T02:56:14;-2.60;99.90
5675;DHT22;2860;54.284;10.158;2023-04-03T02:58:39;-2.60;99.90
5675;DHT22;2860;54.284;10.158;2023-04-03T03:01:05;-2.70;99.90
5675;DHT22;2860;54.284;10.158;2023-04-03T03:03:31;-2.70;99.90
5675;DHT22;2860;54.284;10.158;2023-04-03T03:06:07;-2.70;99.90
5675;DHT22;2860;54.284;10.158;2023-04-03T03:08:34;-2.70;99.90
5675;DHT22;2860;54.284;10.158;2023-04-03T03:11:00;-2.70;99.90
5675;DHT22;2860;54.284;10.158;2023-04-03T03:13:26;-2.70;99.90
5675;DHT22;2860;54.284;10.158;2023-04-03T03:15:51;-2.70;99.90
5675;DHT22;2860;54.284;10.158;2023-04-03T03:18:17;-2.70;99.90
5675;DHT22;2860;54.284;10.158;2023-04-03T03:20:43;-2.70;99.90
5675;DHT22;2860;54.284;10.158;2023-04-03T03:23:09;-2.70;99.90
5675;DHT22;2860;54.284;10.158;2023-04-03T03:25:38;-2.70;99.90
5675;DHT22;2860;54.284;10.158;2023-04-03T03:28:04;-2.80;99.90
5675;DHT22;2860;54.284;10.158;2023-04-03T03:30:30;-2.80;99.90
5675;DHT22;2860;54.284;10.158;2023-04-03T03:32:56;-2.80;99.90
5675;DHT22;2860;54.284;10.158;2023-04-03T03:35:21;-2.80;99.90
5675;DHT22;2860;54.284;10.158;2023-04-03T03:37:47;-2.90;99.90
5675;DHT22;2860;54.284;10.158;2023-04-03T03:40:12;-2.90;99.90
5675;DHT22;2860;54.284;10.158;2023-04-03T03:42:38;-3.00;99.90
5675;DHT22;2860;54.284;10.158;2023-04-03T03:45:04;-3.00;99.90
5675;DHT22;2860;54.284;10.158;2023-04-03T03:47:30;-3.00;99.90
5675;DHT22;2860;54.284;10.158;2023-04-03T03:49:55;-3.00;99.90
5675;DHT22;2860;54.284;10.158;2023-04-03T03:52:21;-3.00;99.90
5675;DHT22;2860;54.284;10.158;2023-04-03T03:54:47;-3.00;99.90
5675;DHT22;2860;54.284;10.158;2023-04-03T03:57:12;-3.00;99.90
5675;DHT22;2860;54.284;10.158;2023-04-03T03:59:38;-3.00;99.90
5675;DHT22;2860;54.284;10.158;2023-04-03T04:02:05;-3.00;99.90
5675;DHT22;2860;54.284;10.158;2023-04-03T04:04:30;-3.00;99.90
5675;DHT22;2860;54.284;10.158;2023-04-03T04:06:56;-3.00;99.90
5675;DHT22;2860;54.284;10.158;2023-04-03T04:09:21;-3.00;99.90
5675;DHT22;2860;54.284;10.158;2023-04-03T04:11:47;-3.00;99.90
5675;DHT22;2860;54.284;10.158;2023-04-03T04:14:12;-3.00;99.90
5675;DHT22;2860;54.284;10.158;2023-04-03T04:16:38;-3.00;99.90
5675;DHT22;2860;54.284;10.158;2023-04-03T04:19:04;-3.10;99.90
5675;DHT22;2860;54.284;10.158;2023-04-03T04:21:30;-3.10;99.90
5675;DHT22;2860;54.284;10.158;2023-04-03T04:23:55;-3.10;99.90
5675;DHT22;2860;54.284;10.158;2023-04-03T04:26:21;-3.10;99.90
5675;DHT22;2860;54.284;10.158;2023-04-03T04:28:46;-3.10;99.90
5675;DHT22;2860;54.284;10.158;2023-04-03T04:31:12;-3.10;99.90
5675;DHT22;2860;54.284;10.158;2023-04-03T04:33:37;-3.00;99.90
5675;DHT22;2860;54.284;10.158;2023-04-03T04:36:03;-3.10;99.90
5675;DHT22;2860;54.284;10.158;2023-04-03T04:38:28;-3.00;99.90
5675;DHT22;2860;54.284;10.158;2023-04-03T04:40:54;-3.10;99.90
5675;DHT22;2860;54.284;10.158;2023-04-03T04:43:19;-3.10;99.90
5675;DHT22;2860;54.284;10.158;2023-04-03T04:45:45;-3.10;99.90
5675;DHT22;2860;54.284;10.158;2023-04-03T04:48:11;-3.10;99.90
5675;DHT22;2860;54.284;10.158;2023-04-03T04:50:36;-3.10;99.90
5675;DHT22;2860;54.284;10.158;2023-04-03T04:53:02;-3.10;99.90
5675;DHT22;2860;54.284;10.158;2023-04-03T04:55:27;-3.10;99.90
5675;DHT22;2860;54.284;10.158;2023-04-03T04:57:53;-3.20;99.90
5675;DHT22;2860;54.284;10.158;2023-04-03T05:00:18;-3.30;99.90
5675;DHT22;2860;54.284;10.158;2023-04-03T05:02:44;-3.30;99.90
5675;DHT22;2860;54.284;10.158;2023-04-03T05:05:10;-3.30;99.90
5675;DHT22;2860;54.284;10.158;2023-04-03T05:07:35;-3.30;99.90
5675;DHT22;2860;54.284;10.158;2023-04-03T05:10:01;-3.30;99.90
5675;DHT22;2860;54.284;10.158;2023-04-03T05:12:28;-3.30;99.90
5675;DHT22;2860;54.284;10.158;2023-04-03T05:14:53;-3.20;99.90
5675;DHT22;2860;54.284;10.158;2023-04-03T05:17:19;-3.30;99.90
5675;DHT22;2860;54.284;10.158;2023-04-03T05:19:44;-3.20;99.90
5675;DHT22;2860;54.284;10.158;2023-04-03T05:22:10;-3.20;99.90
5675;DHT22;2860;54.284;10.158;2023-04-03T05:24:35;-3.10;99.90
5675;DHT22;2860;54.284;10.158;2023-04-03T05:27:01;-3.10;99.90
5675;DHT22;2860;54.284;10.158;2023-04-03T05:29:26;-3.00;99.90
5675;DHT22;2860;54.284;10.158;2023-04-03T05:31:52;-2.90;99.90
5675;DHT22;2860;54.284;10.158;2023-04-03T05:34:18;-2.50;99.90
5675;DHT22;2860;54.284;10.158;2023-04-03T05:36:43;-1.90;99.90
5675;DHT22;2860;54.284;10.158;2023-04-03T05:39:09;-1.40;99.90
5675;DHT22;2860;54.284;10.158;2023-04-03T05:41:35;-1.00;99.90
5675;DHT22;2860;54.284;10.158;2023-04-03T05:44:00;-0.60;99.90
5675;DHT22;2860;54.284;10.158;2023-04-03T05:46:26;-0.20;99.90
5675;DHT22;2860;54.284;10.158;2023-04-03T05:48:52;0.20;99.90
5675;DHT22;2860;54.284;10.158;2023-04-03T05:51:20;0.50;99.90
5675;DHT22;2860;54.284;10.158;2023-04-03T05:53:47;0.70;99.90
5675;DHT22;2860;54.284;10.158;2023-04-03T05:56:13;0.90;99.90
5675;DHT22;2860;54.284;10.158;2023-04-03T05:58:38;0.90;99.90
5675;DHT22;2860;54.284;10.158;2023-04-03T06:01:05;0.90;99.90
5675;DHT22;2860;54.284;10.158;2023-04-03T06:03:31;0.90;99.90
5675;DHT22;2860;54.284;10.158;2023-04-03T06:05:56;0.80;99.90
5675;DHT22;2860;54.284;10.158;2023-04-03T06:08:22;0.70;99.90
5675;DHT22;2860;54.284;10.158;2023-04-03T06:10:49;0.60;99.90
5675;DHT22;2860;54.284;10.158;2023-04-03T06:13:15;0.50;99.90
5675;DHT22;2860;54.284;10.158;2023-04-03T06:15:41;0.50;99.90
5675;DHT22;2860;54.284;10.158;2023-04-03T06:18:06;0.50;99.90
5675;DHT22;2860;54.284;10.158;2023-04-03T06:20:32;0.40;99.90
5675;DHT22;2860;54.284;10.158;2023-04-03T06:22:58;0.40;99.90
5675;DHT22;2860;54.284;10.158;2023-04-03T06:25:23;0.50;99.90
5675;DHT22;2860;54.284;10.158;2023-04-03T06:27:49;0.50;99.90
5675;DHT22;2860;54.284;10.158;2023-04-03T06:30:15;0.60;99.90
5675;DHT22;2860;54.284;10.158;2023-04-03T06:32:41;0.70;99.90
5675;DHT22;2860;54.284;10.158;2023-04-03T06:35:07;0.80;99.90
5675;DHT22;2860;54.284;10.158;2023-04-03T06:37:33;0.80;99.90
5675;DHT22;2860;54.284;10.158;2023-04-03T06:39:59;0.90;99.90
5675;DHT22;2860;54.284;10.158;2023-04-03T06:42:25;1.00;99.90
5675;DHT22;2860;54.284;10.158;2023-04-03T06:44:51;1.10;99.90
5675;DHT22;2860;54.284;10.158;2023-04-03T06:47:17;1.30;99.90
5675;DHT22;2860;54.284;10.158;2023-04-03T06:49:43;1.50;99.90
5675;DHT22;2860;54.284;10.158;2023-04-03T06:52:09;1.60;99.90
5675;DHT22;2860;54.284;10.158;2023-04-03T06:54:35;1.80;99.90
5675;DHT22;2860;54.284;10.158;2023-04-03T06:57:01;1.90;99.90
5675;DHT22;2860;54.284;10.158;2023-04-03T06:59:27;2.10;99.90
5675;DHT22;2860;54.284;10.158;2023-04-03T07:01:52;2.30;99.90
5675;DHT22;2860;54.284;10.158;2023-04-03T07:04:18;2.40;99.90
5675;DHT22;2860;54.284;10.158;2023-04-03T07:06:46;2.60;99.90
5675;DHT22;2860;54.284;10.158;2023-04-03T07:09:12;2.70;99.90
5675;DHT22;2860;54.284;10.158;2023-04-03T07:11:37;2.80;99.90
5675;DHT22;2860;54.284;10.158;2023-04-03T07:14:03;3.00;99.90
5675;DHT22;2860;54.284;10.158;2023-04-03T07:16:28;3.20;99.90
5675;DHT22;2860;54.284;10.158;2023-04-03T07:18:56;3.40;99.90
5675;DHT22;2860;54.284;10.158;2023-04-03T07:21:22;3.60;99.90
5675;DHT22;2860;54.284;10.158;2023-04-03T07:23:48;3.80;99.90
5675;DHT22;2860;54.284;10.158;2023-04-03T07:26:13;3.90;99.90
5675;DHT22;2860;54.284;10.158;2023-04-03T07:28:39;4.00;99.90
5675;DHT22;2860;54.284;10.158;2023-04-03T07:31:08;4.10;99.90
5675;DHT22;2860;54.284;10.158;2023-04-03T07:33:37;4.20;99.90
5675;DHT22;2860;54.284;10.158;2023-04-03T07:36:04;4.30;99.90
5675;DHT22;2860;54.284;10.158;2023-04-03T07:38:30;4.50;99.90
5675;DHT22;2860;54.284;10.158;2023-04-03T07:40:56;4.60;99.90
5675;DHT22;2860;54.284;10.158;2023-04-03T07:43:22;4.70;99.90
5675;DHT22;2860;54.284;10.158;2023-04-03T07:45:48;4.80;99.90
5675;DHT22;2860;54.284;10.158;2023-04-03T07:48:19;4.80;99.90
5675;DHT22;2860;54.284;10.158;2023-04-03T07:50:44;5.00;99.90
5675;DHT22;2860;54.284;10.158;2023-04-03T07:53:10;5.10;99.90
5675;DHT22;2860;54.284;10.158;2023-04-03T07:55:36;5.20;99.90
5675;DHT22;2860;54.284;10.158;2023-04-03T07:58:17;5.20;99.90
5675;DHT22;2860;54.284;10.158;2023-04-03T08:00:44;5.50;99.90
5675;DHT22;2860;54.284;10.158;2023-04-03T08:03:10;5.70;99.90
5675;DHT22;2860;54.284;10.158;2023-04-03T08:05:43;5.80;99.90
5675;DHT22;2860;54.284;10.158;2023-04-03T08:08:12;5.90;99.90
5675;DHT22;2860;54.284;10.158;2023-04-03T08:10:37;5.90;99.90
5675;DHT22;2860;54.284;10.158;2023-04-03T08:13:03;6.00;99.90
5675;DHT22;2860;54.284;10.158;2023-04-03T08:15:30;6.10;99.90
5675;DHT22;2860;54.284;10.158;2023-04-03T08:17:56;6.10;99.90
5675;DHT22;2860;54.284;10.158;2023-04-03T08:20:21;6.20;99.90
5675;DHT22;2860;54.284;10.158;2023-04-03T08:22:47;6.30;99.90
5675;DHT22;2860;54.284;10.158;2023-04-03T08:25:13;6.50;99.90
5675;DHT22;2860;54.284;10.158;2023-04-03T08:27:38;6.50;99.90
5675;DHT22;2860;54.284;10.158;2023-04-03T08:30:05;6.70;99.90
5675;DHT22;2860;54.284;10.158;2023-04-03T08:32:33;6.90;99.90
5675;DHT22;2860;54.284;10.158;2023-04-03T08:34:58;7.00;99.90
5675;DHT22;2860;54.284;10.158;2023-04-03T08:37:24;7.00;99.90
5675;DHT22;2860;54.284;10.158;2023-04-03T08:39:50;7.00;99.90
5675;DHT22;2860;54.284;10.158;2023-04-03T08:42:40;6.90;99.90
5675;DHT22;2860;54.284;10.158;2023-04-03T08:45:17;7.00;99.90
5675;DHT22;2860;54.284;10.158;2023-04-03T08:47:59;7.20;99.90
5675;DHT22;2860;54.284;10.158;2023-04-03T08:50:42;7.20;99.90
5675;DHT22;2860;54.284;10.158;2023-04-03T08:53:14;7.40;99.90
5675;DHT22;2860;54.284;10.158;2023-04-03T08:55:46;7.60;99.90
5675;DHT22;2860;54.284;10.158;2023-04-03T08:58:19;7.60;99.90
5675;DHT22;2860;54.284;10.158;2023-04-03T09:00:59;7.70;99.90
5675;DHT22;2860;54.284;10.158;2023-04-03T09:03:30;7.80;99.90
5675;DHT22;2860;54.284;10.158;2023-04-03T09:06:05;7.80;99.90
5675;DHT22;2860;54.284;10.158;2023-04-03T09:11:46;8.10;99.90
5675;DHT22;2860;54.284;10.158;2023-04-03T09:17:04;8.10;99.90
5675;DHT22;2860;54.284;10.158;2023-04-03T09:20:04;8.20;99.90
5675;DHT22;2860;54.284;10.158;2023-04-03T09:22:33;8.00;99.90
5675;DHT22;2860;54.284;10.158;2023-04-03T09:25:27;7.70;99.90
5675;DHT22;2860;54.284;10.158;2023-04-03T09:27:54;7.60;99.90
5675;DHT22;2860;54.284;10.158;2023-04-03T09:30:22;7.70;99.90
5675;DHT22;2860;54.284;10.158;2023-04-03T09:32:51;7.60;99.90
5675;DHT22;2860;54.284;10.158;2023-04-03T09:37:48;7.90;99.90
5675;DHT22;2860;54.284;10.158;2023-04-03T09:43:01;7.80;99.90
5675;DHT22;2860;54.284;10.158;2023-04-03T09:45:30;7.80;99.90
5675;DHT22;2860;54.284;10.158;2023-04-03T09:48:15;7.90;99.90
5675;DHT22;2860;54.284;10.158;2023-04-03T09:55:52;7.60;99.90
5675;DHT22;2860;54.284;10.158;2023-04-03T09:58:30;7.50;99.90
5675;DHT22;2860;54.284;10.158;2023-04-03T10:01:00;7.70;99.90
5675;DHT22;2860;54.284;10.158;2023-04-03T10:03:34;7.80;99.90
5675;DHT22;2860;54.284;10.158;2023-04-03T10:06:02;7.70;99.90
5675;DHT22;2860;54.284;10.158;2023-04-03T10:08:29;7.50;99.90
5675;DHT22;2860;54.284;10.158;2023-04-03T10:11:12;7.30;99.90
5675;DHT22;2860;54.284;10.158;2023-04-03T10:13:54;7.30;99.90
5675;DHT22;2860;54.284;10.158;2023-04-03T10:17:11;7.50;99.90
5675;DHT22;2860;54.284;10.158;2023-04-03T10:19:37;7.50;99.90
5675;DHT22;2860;54.284;10.158;2023-04-03T10:25:21;7.90;99.90
5675;DHT22;2860;54.284;10.158;2023-04-03T10:30:32;8.40;99.90
5675;DHT22;2860;54.284;10.158;2023-04-03T10:36:22;8.60;99.90
5675;DHT22;2860;54.284;10.158;2023-04-03T10:39:14;8.70;99.90
5675;DHT22;2860;54.284;10.158;2023-04-03T10:44:36;9.00;99.90
5675;DHT22;2860;54.284;10.158;2023-04-03T10:47:18;9.20;99.90
5675;DHT22;2860;54.284;10.158;2023-04-03T10:53:17;9.50;99.90
5675;DHT22;2860;54.284;10.158;2023-04-03T10:56:01;9.90;99.90
5675;DHT22;2860;54.284;10.158;2023-04-03T10:58:50;10.00;99.90
5675;DHT22;2860;54.284;10.158;2023-04-03T11:01:21;10.10;99.90
5675;DHT22;2860;54.284;10.158;2023-04-03T11:03:53;10.20;99.90
5675;DHT22;2860;54.284;10.158;2023-04-03T11:06:22;10.20;99.90
5675;DHT22;2860;54.284;10.158;2023-04-03T11:09:13;10.20;99.90
5675;DHT22;2860;54.284;10.158;2023-04-03T11:11:42;9.80;99.90
5675;DHT22;2860;54.284;10.158;2023-04-03T11:14:18;9.60;99.90
5675;DHT22;2860;54.284;10.158;2023-04-03T11:16:50;9.40;99.90
5675;DHT22;2860;54.284;10.158;2023-04-03T11:19:22;9.10;99.90
5675;DHT22;2860;54.284;10.158;2023-04-03T11:24:42;8.60;99.90
5675;DHT22;2860;54.284;10.158;2023-04-03T11:27:16;8.30;99.90
5675;DHT22;2860;54.284;10.158;2023-04-03T11:29:46;8.00;99.90
5675;DHT22;2860;54.284;10.158;2023-04-03T11:35:03;8.10;99.90
5675;DHT22;2860;54.284;10.158;2023-04-03T11:37:41;8.20;99.90
5675;DHT22;2860;54.284;10.158;2023-04-03T11:42:43;8.60;99.90
5675;DHT22;2860;54.284;10.158;2023-04-03T11:50:51;9.20;99.90
5675;DHT22;2860;54.284;10.158;2023-04-03T11:53:36;9.50;99.90
5675;DHT22;2860;54.284;10.158;2023-04-03T12:01:55;9.40;99.90
5675;DHT22;2860;54.284;10.158;2023-04-03T12:04:24;9.50;99.90
5675;DHT22;2860;54.284;10.158;2023-04-03T12:10:26;9.50;99.90
5675;DHT22;2860;54.284;10.158;2023-04-03T12:12:39;9.50;99.90
5675;DHT22;2860;54.284;10.158;2023-04-03T12:17:45;9.90;99.90
5675;DHT22;2860;54.284;10.158;2023-04-03T12:20:51;9.90;99.90
5675;DHT22;2860;54.284;10.158;2023-04-03T12:23:34;9.80;99.90
5675;DHT22;2860;54.284;10.158;2023-04-03T12:28:36;9.70;99.90
5675;DHT22;2860;54.284;10.158;2023-04-03T12:31:04;9.30;99.90
5675;DHT22;2860;54.284;10.158;2023-04-03T12:33:42;9.30;99.90
5675;DHT22;2860;54.284;10.158;2023-04-03T12:36:18;9.30;99.90
5675;DHT22;2860;54.284;10.158;2023-04-03T12:41:38;9.20;99.90
5675;DHT22;2860;54.284;10.158;2023-04-03T12:46:59;9.10;99.90
5675;DHT22;2860;54.284;10.158;2023-04-03T12:49:42;9.00;99.90
5675;DHT22;2860;54.284;10.158;2023-04-03T12:52:33;8.80;99.90
5675;DHT22;2860;54.284;10.158;2023-04-03T12:55:01;8.70;99.90
5675;DHT22;2860;54.284;10.158;2023-04-03T12:57:30;8.70;99.90
5675;DHT22;2860;54.284;10.158;2023-04-03T12:59:57;8.70;99.90
5675;DHT22;2860;54.284;10.158;2023-04-03T13:04:53;8.70;99.90
5675;DHT22;2860;54.284;10.158;2023-04-03T13:07:37;8.90;99.90
5675;DHT22;2860;54.284;10.158;2023-04-03T13:12:33;8.70;99.90
5675;DHT22;2860;54.284;10.158;2023-04-03T13:15:11;8.90;99.90
5675;DHT22;2860;54.284;10.158;2023-04-03T13:17:39;8.80;99.90
5675;DHT22;2860;54.284;10.158;2023-04-03T13:20:29;8.90;99.90
5675;DHT22;2860;54.284;10.158;2023-04-03T13:23:15;9.00;99.90
5675;DHT22;2860;54.284;10.158;2023-04-03T13:25:44;9.00;99.90
5675;DHT22;2860;54.284;10.158;2023-04-03T13:28:14;9.00;99.90
5675;DHT22;2860;54.284;10.158;2023-04-03T13:30:54;9.10;99.90
5675;DHT22;2860;54.284;10.158;2023-04-03T13:33:24;9.10;99.90
5675;DHT22;2860;54.284;10.158;2023-04-03T13:36:00;8.90;99.90
5675;DHT22;2860;54.284;10.158;2023-04-03T13:38:29;8.80;99.90
5675;DHT22;2860;54.284;10.158;2023-04-03T13:41:00;8.60;99.90
5675;DHT22;2860;54.284;10.158;2023-04-03T13:43:37;8.60;99.90
5675;DHT22;2860;54.284;10.158;2023-04-03T13:48:45;8.50;99.90
5675;DHT22;2860;54.284;10.158;2023-04-03T13:53:52;8.90;99.90
5675;DHT22;2860;54.284;10.158;2023-04-03T13:56:37;8.80;99.90
5675;DHT22;2860;54.284;10.158;2023-04-03T13:59:05;8.70;99.90
5675;DHT22;2860;54.284;10.158;2023-04-03T14:01:42;8.70;99.90
5675;DHT22;2860;54.284;10.158;2023-04-03T14:04:22;8.70;99.90
5675;DHT22;2860;54.284;10.158;2023-04-03T14:06:49;8.70;99.90
5675;DHT22;2860;54.284;10.158;2023-04-03T14:09:16;8.60;99.90
5675;DHT22;2860;54.284;10.158;2023-04-03T14:11:43;8.50;99.90
5675;DHT22;2860;54.284;10.158;2023-04-03T14:14:23;8.50;99.90
5675;DHT22;2860;54.284;10.158;2023-04-03T14:16:54;8.40;99.90
5675;DHT22;2860;54.284;10.158;2023-04-03T14:19:27;8.50;99.90
5675;DHT22;2860;54.284;10.158;2023-04-03T14:21:54;8.60;99.90
5675;DHT22;2860;54.284;10.158;2023-04-03T14:24:20;8.60;99.90
5675;DHT22;2860;54.284;10.158;2023-04-03T14:26:46;8.60;99.90
5675;DHT22;2860;54.284;10.158;2023-04-03T14:29:13;8.50;99.90
5675;DHT22;2860;54.284;10.158;2023-04-03T14:31:39;8.50;99.90
5675;DHT22;2860;54.284;10.158;2023-04-03T14:34:05;8.40;99.90
5675;DHT22;2860;54.284;10.158;2023-04-03T14:36:34;8.40;99.90
5675;DHT22;2860;54.284;10.158;2023-04-03T14:39:00;8.60;99.90
5675;DHT22;2860;54.284;10.158;2023-04-03T14:41:27;8.50;99.90
5675;DHT22;2860;54.284;10.158;2023-04-03T14:43:53;8.30;99.90
5675;DHT22;2860;54.284;10.158;2023-04-03T14:46:26;8.30;99.90
5675;DHT22;2860;54.284;10.158;2023-04-03T14:48:52;8.00;99.90
5675;DHT22;2860;54.284;10.158;2023-04-03T14:51:17;7.80;99.90
5675;DHT22;2860;54.284;10.158;2023-04-03T14:53:44;7.70;99.90
5675;DHT22;2860;54.284;10.158;2023-04-03T14:56:16;7.60;99.90
5675;DHT22;2860;54.284;10.158;2023-04-03T14:58:43;7.70;99.90
5675;DHT22;2860;54.284;10.158;2023-04-03T15:01:11;7.80;99.90
5675;DHT22;2860;54.284;10.158;2023-04-03T15:03:39;7.90;99.90
5675;DHT22;2860;54.284;10.158;2023-04-03T15:06:04;8.00;99.90
5675;DHT22;2860;54.284;10.158;2023-04-03T15:08:30;8.20;99.90
5675;DHT22;2860;54.284;10.158;2023-04-03T15:10:56;8.10;99.90
5675;DHT22;2860;54.284;10.158;2023-04-03T15:13:22;7.90;99.90
5675;DHT22;2860;54.284;10.158;2023-04-03T15:15:49;7.70;99.90
5675;DHT22;2860;54.284;10.158;2023-04-03T15:18:18;7.70;99.90
5675;DHT22;2860;54.284;10.158;2023-04-03T15:20:45;7.70;99.90
5675;DHT22;2860;54.284;10.158;2023-04-03T15:23:12;7.90;99.90
5675;DHT22;2860;54.284;10.158;2023-04-03T15:25:38;7.90;99.90
5675;DHT22;2860;54.284;10.158;2023-04-03T15:28:05;7.80;99.90
5675;DHT22;2860;54.284;10.158;2023-04-03T15:30:31;7.70;99.90
5675;DHT22;2860;54.284;10.158;2023-04-03T15:32:56;7.90;99.90
5675;DHT22;2860;54.284;10.158;2023-04-03T15:35:22;8.00;99.90
5675;DHT22;2860;54.284;10.158;2023-04-03T15:37:48;8.00;99.90
5675;DHT22;2860;54.284;10.158;2023-04-03T15:40:13;7.90;99.90
5675;DHT22;2860;54.284;10.158;2023-04-03T15:42:44;7.80;99.90
5675;DHT22;2860;54.284;10.158;2023-04-03T15:45:10;7.80;99.90
5675;DHT22;2860;54.284;10.158;2023-04-03T15:47:36;7.60;99.90
5675;DHT22;2860;54.284;10.158;2023-04-03T15:50:01;7.30;99.90
5675;DHT22;2860;54.284;10.158;2023-04-03T15:52:27;7.30;99.90
5675;DHT22;2860;54.284;10.158;2023-04-03T15:54:52;7.10;99.90
5675;DHT22;2860;54.284;10.158;2023-04-03T15:57:18;7.10;99.90
5675;DHT22;2860;54.284;10.158;2023-04-03T15:59:44;7.10;99.90
5675;DHT22;2860;54.284;10.158;2023-04-03T16:02:10;7.10;99.90
5675;DHT22;2860;54.284;10.158;2023-04-03T16:04:38;7.00;99.90
5675;DHT22;2860;54.284;10.158;2023-04-03T16:07:04;6.90;99.90
5675;DHT22;2860;54.284;10.158;2023-04-03T16:09:30;6.90;99.90
5675;DHT22;2860;54.284;10.158;2023-04-03T16:11:55;6.70;99.90
5675;DHT22;2860;54.284;10.158;2023-04-03T16:14:21;6.80;99.90
5675;DHT22;2860;54.284;10.158;2023-04-03T16:16:47;6.80;99.90
5675;DHT22;2860;54.284;10.158;2023-04-03T16:19:13;6.60;99.90
5675;DHT22;2860;54.284;10.158;2023-04-03T16:21:38;6.60;99.90
5675;DHT22;2860;54.284;10.158;2023-04-03T16:24:04;6.50;99.90
5675;DHT22;2860;54.284;10.158;2023-04-03T16:26:31;6.40;99.90
5675;DHT22;2860;54.284;10.158;2023-04-03T16:28:56;6.50;99.90
5675;DHT22;2860;54.284;10.158;2023-04-03T16:31:23;6.50;99.90
5675;DHT22;2860;54.284;10.158;2023-04-03T16:33:49;6.50;99.90
5675;DHT22;2860;54.284;10.158;2023-04-03T16:36:15;6.40;99.90
5675;DHT22;2860;54.284;10.158;2023-04-03T16:38:40;6.40;99.90
5675;DHT22;2860;54.284;10.158;2023-04-03T16:41:06;6.30;99.90
5675;DHT22;2860;54.284;10.158;2023-04-03T16:43:32;6.20;99.90
5675;DHT22;2860;54.284;10.158;2023-04-03T16:45:59;6.20;99.90
5675;DHT22;2860;54.284;10.158;2023-04-03T16:48:24;6.20;99.90
5675;DHT22;2860;54.284;10.158;2023-04-03T16:50:50;6.00;99.90
5675;DHT22;2860;54.284;10.158;2023-04-03T16:53:19;5.90;99.90
5675;DHT22;2860;54.284;10.158;2023-04-03T16:55:45;5.80;99.90
5675;DHT22;2860;54.284;10.158;2023-04-03T16:58:10;5.80;99.90
5675;DHT22;2860;54.284;10.158;2023-04-03T17:00:36;5.70;99.90
5675;DHT22;2860;54.284;10.158;2023-04-03T17:03:02;5.60;99.90
5675;DHT22;2860;54.284;10.158;2023-04-03T17:05:27;5.60;99.90
5675;DHT22;2860;54.284;10.158;2023-04-03T17:07:53;5.60;99.90
5675;DHT22;2860;54.284;10.158;2023-04-03T17:10:18;5.50;99.90
5675;DHT22;2860;54.284;10.158;2023-04-03T17:12:44;5.40;99.90
5675;DHT22;2860;54.284;10.158;2023-04-03T17:15:10;5.40;99.90
5675;DHT22;2860;54.284;10.158;2023-04-03T17:17:36;5.30;99.90
5675;DHT22;2860;54.284;10.158;2023-04-03T17:20:02;5.20;99.90
5675;DHT22;2860;54.284;10.158;2023-04-03T17:22:29;5.10;99.90
5675;DHT22;2860;54.284;10.158;2023-04-03T17:24:54;5.00;99.90